createdAt,value
2017-09-11T00:02:40.388Z,12.37
2017-09-11T00:17:36.739Z,11.87
2017-09-11T00:20:04.310Z,13.90
2017-09-11T00:22:31.907Z,11.40
2017-09-11T00:24:59.740Z,11.57
2017-09-11T00:27:27.289Z,13.53
2017-09-11T00:29:54.853Z,13.53
2017-09-11T00:32:22.447Z,12.40
2017-09-11T00:34:50.059Z,12.17
2017-09-11T00:48:34.943Z,12.43
2017-09-11T01:03:35.830Z,13.00
2017-09-11T01:18:32.946Z,15.13
2017-09-11T01:21:00.589Z,10.87
2017-09-11T01:23:28.165Z,14.23
2017-09-11T01:25:55.811Z,12.37
2017-09-11T01:28:23.349Z,10.40
2017-09-11T01:30:50.992Z,10.60
2017-09-11T01:33:18.814Z,12.30
2017-09-11T01:35:46.403Z,11.53
2017-09-11T01:48:30.385Z,11.13
2017-09-11T02:03:29.264Z,11.80
2017-09-11T02:18:28.399Z,10.37
2017-09-11T02:20:55.967Z,10.80
2017-09-11T02:23:23.531Z,15.53
2017-09-11T02:25:51.213Z,11.63
2017-09-11T02:28:18.805Z,11.20
2017-09-11T02:30:46.393Z,13.87
2017-09-11T02:33:14.004Z,11.20
2017-09-11T02:35:41.342Z,9.83
2017-09-11T02:48:27.943Z,12.40
2017-09-11T03:03:24.956Z,12.07
2017-09-11T03:18:23.905Z,12.13
2017-09-11T03:20:51.480Z,11.93
2017-09-11T03:23:19.062Z,11.30
2017-09-11T03:25:47.488Z,12.63
2017-09-11T03:28:15.067Z,13.67
2017-09-11T03:30:43.056Z,14.47
2017-09-11T03:33:10.675Z,11.60
2017-09-11T03:35:38.263Z,12.10
2017-09-11T03:48:21.969Z,17.33
2017-09-11T04:03:28.805Z,15.10
2017-09-11T04:18:25.662Z,20.33
2017-09-11T04:20:53.234Z,14.80
2017-09-11T04:23:20.765Z,16.97
2017-09-11T04:25:48.636Z,15.50
2017-09-11T04:28:16.222Z,14.90
2017-09-11T04:30:43.781Z,14.60
2017-09-11T04:33:11.423Z,13.37
2017-09-11T04:35:38.955Z,17.77
2017-09-11T04:48:25.439Z,16.57
2017-09-11T05:03:22.225Z,16.50
2017-09-11T05:18:23.362Z,15.77
2017-09-11T05:20:50.885Z,17.30
2017-09-11T05:23:18.475Z,18.60
2017-09-11T05:25:46.145Z,15.53
2017-09-11T05:28:13.716Z,21.40
2017-09-11T05:30:42.025Z,18.57
2017-09-11T05:33:09.620Z,19.87
2017-09-11T05:35:37.224Z,16.23
2017-09-11T05:48:20.808Z,16.67
2017-09-11T06:03:17.657Z,17.87
2017-09-11T06:18:16.554Z,14.70
2017-09-11T06:20:44.109Z,16.10
2017-09-11T06:23:11.685Z,16.10
2017-09-11T06:25:39.303Z,15.07
2017-09-11T06:28:07.035Z,12.93
2017-09-11T06:30:34.612Z,16.27
2017-09-11T06:33:02.255Z,13.33
2017-09-11T06:35:29.860Z,15.50
2017-09-11T06:48:14.222Z,12.10
2017-09-11T07:03:15.031Z,12.43
2017-09-11T07:18:11.958Z,12.50
2017-09-11T07:20:39.492Z,12.50
2017-09-11T07:23:06.340Z,13.17
2017-09-11T07:25:33.264Z,16.90
2017-09-11T07:28:00.124Z,15.43
2017-09-11T07:30:26.985Z,11.57
2017-09-11T07:32:53.871Z,13.80
2017-09-11T07:35:20.691Z,13.63
2017-09-11T07:48:09.144Z,13.30
2017-09-11T08:03:08.467Z,11.90
2017-09-11T08:18:07.567Z,14.67
2017-09-11T08:20:35.148Z,14.93
2017-09-11T08:23:02.682Z,12.73
2017-09-11T08:25:30.335Z,16.20
2017-09-11T08:27:57.869Z,14.50
2017-09-11T08:30:25.550Z,13.00
2017-09-11T08:32:53.158Z,13.07
2017-09-11T08:35:20.743Z,12.97
2017-09-11T08:48:05.230Z,12.10
2017-09-11T09:03:03.904Z,13.83
2017-09-11T09:18:04.812Z,11.93
2017-09-11T09:20:32.431Z,12.13
2017-09-11T09:22:59.956Z,12.07
2017-09-11T09:25:27.594Z,12.37
2017-09-11T09:27:55.248Z,12.00
2017-09-11T09:30:22.898Z,12.20
2017-09-11T09:32:50.510Z,11.00
2017-09-11T09:35:18.119Z,12.70
2017-09-11T09:48:00.062Z,11.90
2017-09-11T10:02:58.856Z,11.00
2017-09-11T10:17:59.252Z,12.30
2017-09-11T10:20:26.776Z,12.23
2017-09-11T10:22:54.366Z,12.20
2017-09-11T10:25:21.978Z,10.40
2017-09-11T10:27:49.565Z,11.03
2017-09-11T10:30:17.150Z,12.43
2017-09-11T10:32:45.015Z,10.87
2017-09-11T10:35:12.579Z,10.27
2017-09-11T10:47:56.076Z,11.13
2017-09-11T11:02:54.812Z,10.27
2017-09-11T11:17:53.640Z,8.27
2017-09-11T11:20:21.238Z,8.30
2017-09-11T11:22:48.803Z,10.30
2017-09-11T11:25:16.383Z,8.73
2017-09-11T11:27:43.974Z,8.30
2017-09-11T11:30:11.567Z,9.47
2017-09-11T11:32:39.141Z,9.33
2017-09-11T11:35:06.932Z,9.27
2017-09-11T11:47:51.355Z,9.80
2017-09-11T12:02:50.918Z,9.33
2017-09-11T12:17:51.237Z,9.03
2017-09-11T12:20:18.804Z,9.83
2017-09-11T12:22:46.395Z,9.07
2017-09-11T12:25:14.032Z,8.93
2017-09-11T12:27:41.664Z,8.83
2017-09-11T12:30:09.543Z,10.10
2017-09-11T12:32:37.157Z,8.93
2017-09-11T12:35:04.729Z,8.63
2017-09-11T12:47:48.874Z,10.23
2017-09-11T13:02:45.679Z,9.50
2017-09-11T13:17:44.571Z,9.70
2017-09-11T13:20:12.138Z,9.87
2017-09-11T13:22:39.720Z,11.73
2017-09-11T13:25:07.621Z,9.57
2017-09-11T13:27:35.322Z,9.53
2017-09-11T13:30:02.915Z,13.40
2017-09-11T13:32:30.552Z,10.17
2017-09-11T13:34:58.147Z,10.07
2017-09-11T13:47:41.801Z,11.40
2017-09-11T14:02:41.173Z,10.23
2017-09-11T14:17:46.844Z,10.37
2017-09-11T14:20:14.449Z,10.83
2017-09-11T14:22:41.958Z,10.97
2017-09-11T14:25:09.556Z,11.20
2017-09-11T14:27:37.153Z,9.20
2017-09-11T14:30:04.666Z,9.90
2017-09-11T14:32:32.269Z,9.77
2017-09-11T14:34:59.832Z,9.83
2017-09-11T14:47:43.571Z,11.00
2017-09-11T15:02:40.410Z,11.80
2017-09-11T15:17:39.355Z,12.30
2017-09-11T15:20:06.908Z,13.80
2017-09-11T15:22:34.406Z,11.50
2017-09-11T15:25:01.935Z,14.60
2017-09-11T15:27:29.563Z,11.70
2017-09-11T15:29:57.175Z,14.50
2017-09-11T15:32:24.010Z,13.93
2017-09-11T15:34:50.819Z,13.83
2017-09-11T15:47:39.221Z,16.53
2017-09-11T16:02:40.046Z,18.33
2017-09-11T16:17:38.899Z,16.50
2017-09-11T16:20:06.445Z,16.50
2017-09-11T16:22:33.947Z,15.40
2017-09-11T16:25:01.578Z,14.50
2017-09-11T16:27:29.121Z,13.77
2017-09-11T16:29:56.765Z,14.90
2017-09-11T16:32:24.345Z,14.13
2017-09-11T16:34:51.919Z,14.53
2017-09-11T16:48:36.137Z,11.50
2017-09-11T17:03:35.430Z,12.03
2017-09-11T17:18:32.288Z,13.57
2017-09-11T17:20:59.803Z,12.10
2017-09-11T17:23:27.361Z,11.87
2017-09-11T17:25:56.055Z,12.53
2017-09-11T17:28:23.635Z,13.17
2017-09-11T17:30:50.421Z,12.23
2017-09-11T17:33:17.322Z,11.73
2017-09-11T17:35:44.154Z,11.30
2017-09-11T17:48:31.523Z,12.10
2017-09-11T18:03:31.913Z,11.10
2017-09-11T18:18:27.765Z,10.03
2017-09-11T18:20:55.324Z,11.17
2017-09-11T18:23:22.846Z,16.50
2017-09-11T18:25:50.429Z,11.50
2017-09-11T18:28:17.982Z,13.33
2017-09-11T18:30:45.583Z,11.13
2017-09-11T18:33:13.118Z,10.87
2017-09-11T18:35:40.640Z,14.63
2017-09-11T18:48:25.044Z,10.20
2017-09-11T19:03:24.366Z,10.90
2017-09-11T19:18:23.180Z,14.07
2017-09-11T19:20:50.737Z,11.70
2017-09-11T19:23:18.303Z,10.70
2017-09-11T19:25:45.866Z,12.63
2017-09-11T19:28:13.437Z,11.50
2017-09-11T19:30:40.955Z,13.23
2017-09-11T19:33:08.523Z,12.33
2017-09-11T19:35:36.057Z,9.93
2017-09-11T19:48:20.990Z,12.07
2017-09-11T20:03:19.283Z,10.07
2017-09-11T20:18:18.663Z,11.60
2017-09-11T20:20:46.244Z,11.83
2017-09-11T20:23:13.795Z,11.87
2017-09-11T20:25:41.412Z,10.40
2017-09-11T20:28:08.964Z,12.03
2017-09-11T20:30:36.465Z,13.97
2017-09-11T20:33:04.070Z,12.13
2017-09-11T20:35:31.634Z,12.23
2017-09-11T20:48:18.421Z,10.23
2017-09-11T21:03:17.225Z,16.03
2017-09-11T21:18:14.142Z,14.50
2017-09-11T21:20:41.663Z,12.97
2017-09-11T21:23:09.192Z,14.73
2017-09-11T21:25:36.751Z,14.03
2017-09-11T21:28:04.338Z,15.80
2017-09-11T21:30:31.909Z,14.70
2017-09-11T21:32:59.502Z,12.37
2017-09-11T21:35:27.055Z,11.67
2017-09-11T21:48:11.806Z,13.27
2017-09-11T22:03:13.972Z,11.77
2017-09-11T22:18:10.703Z,12.13
2017-09-11T22:20:38.283Z,14.43
2017-09-11T22:23:05.837Z,17.47
2017-09-11T22:25:33.398Z,12.93
2017-09-11T22:28:00.956Z,11.23
2017-09-11T22:30:28.501Z,10.17
2017-09-11T22:32:56.242Z,12.80
2017-09-11T22:35:23.817Z,16.90
2017-09-11T22:48:08.044Z,11.27
2017-09-11T23:03:06.709Z,14.77
2017-09-11T23:18:05.221Z,14.33
2017-09-11T23:20:32.756Z,12.43
2017-09-11T23:23:00.295Z,10.60
2017-09-11T23:25:27.924Z,12.70
2017-09-11T23:27:55.554Z,12.40
2017-09-11T23:30:23.115Z,11.63
2017-09-11T23:32:50.733Z,12.07
2017-09-11T23:35:18.351Z,9.60
2017-09-11T23:48:03.786Z,12.40
